Time;durP1;ratioP1;P1;durP2;ratioP2;P2;SDS_P1;SDS_P2;PMS_P1;PMS_P2;Temp;Humidity;BMP_temperature;BMP_pressure;BME280_temperature;BME280_humidity;BME280_pressure;Samples;Min_cycle;Max_cycle;Signal;HPM_P1;HPM_P2
2024/01/24 00:02:05;;;;;;;1.00;1.00;;;;;;;8.57;67.06;100716.25;5016042;27;97043;-58
2024/01/24 00:04:30;;;;;;;1.17;1.07;;;;;;;8.60;66.97;100718.00;5015687;27;96731;-57
2024/01/24 00:06:56;;;;;;;1.40;1.30;;;;;;;8.65;67.27;100708.22;5017771;27;97647;-58
2024/01/24 00:09:21;;;;;;;1.50;1.30;;;;;;;8.67;67.11;100706.47;5016296;27;97923;-57
2024/01/24 00:11:46;;;;;;;2.27;1.27;;;;;;;8.72;67.18;100699.44;5013788;27;97162;-58
2024/01/24 00:14:12;;;;;;;2.83;1.60;;;;;;;8.75;67.15;100706.72;5017529;27;97227;-57
2024/01/24 00:16:38;;;;;;;1.60;1.50;;;;;;;8.80;67.08;100706.72;5018116;27;97330;-59
2024/01/24 00:19:03;;;;;;;1.23;1.03;;;;;;;8.84;66.92;100709.97;5015789;27;97438;-60
2024/01/24 00:21:28;;;;;;;1.47;1.37;;;;;;;8.87;67.12;100705.47;5019445;27;96723;-59
2024/01/24 00:23:53;;;;;;;1.43;1.30;;;;;;;8.89;67.23;100689.16;5016890;27;108211;-60
2024/01/24 00:26:19;;;;;;;1.40;1.30;;;;;;;8.93;67.28;100689.63;5014583;27;101338;-59
2024/01/24 00:28:44;;;;;;;2.33;1.33;;;;;;;8.95;67.40;100698.94;5015279;27;96969;-60
2024/01/24 00:31:09;;;;;;;1.63;1.53;;;;;;;8.97;67.38;100704.69;5016803;27;97140;-60
2024/01/24 00:33:35;;;;;;;1.80;1.30;;;;;;;9.02;67.47;100689.38;5013864;27;105693;-59
2024/01/24 00:36:00;;;;;;;1.60;1.50;;;;;;;9.08;67.34;100668.06;5015612;27;97357;-59
2024/01/24 00:38:25;;;;;;;1.70;1.60;;;;;;;9.11;67.35;100664.28;5014910;27;97069;-58
2024/01/24 00:40:51;;;;;;;1.67;1.57;;;;;;;9.13;67.39;100673.56;5018271;27;96725;-58
2024/01/24 00:43:16;;;;;;;2.00;1.90;;;;;;;9.14;67.44;100639.19;5015937;27;98661;-58
2024/01/24 00:45:41;;;;;;;1.93;1.83;;;;;;;9.13;68.12;100637.69;5016624;27;98344;-60
2024/01/24 00:48:07;;;;;;;6.40;2.20;;;;;;;9.15;67.92;100617.84;5017060;27;98153;-60
2024/01/24 00:50:34;;;;;;;1.37;1.27;;;;;;;9.17;67.64;100601.53;5013931;27;97107;-60
2024/01/24 00:53:04;;;;;;;2.37;1.70;;;;;;;9.19;68.05;100618.31;5011115;27;96829;-60
2024/01/24 00:55:30;;;;;;;2.10;1.90;;;;;;;9.22;67.76;100611.81;5017402;27;98616;-59
2024/01/24 00:57:56;;;;;;;1.30;1.30;;;;;;;9.26;67.77;100617.81;5015832;27;96783;-58
2024/01/24 01:00:22;;;;;;;1.97;1.83;;;;;;;9.29;67.92;100652.69;5015445;27;98420;-59
2024/01/24 01:02:47;;;;;;;3.50;1.80;;;;;;;9.32;67.66;100643.38;5015051;27;97485;-58
2024/01/24 01:05:12;;;;;;;2.10;1.80;;;;;;;9.33;67.95;100647.66;5018825;27;97011;-59
2024/01/24 01:07:38;;;;;;;1.77;1.67;;;;;;;9.37;68.02;100644.63;5013867;27;97533;-59
2024/01/24 01:10:03;;;;;;;2.10;2.00;;;;;;;9.38;68.05;100648.88;5015576;27;97215;-60
2024/01/24 01:12:29;;;;;;;2.10;1.90;;;;;;;9.42;67.91;100641.84;5014742;27;97151;-59
2024/01/24 01:14:54;;;;;;;1.53;1.43;;;;;;;9.46;67.89;100625.75;5016214;27;102219;-59
2024/01/24 01:17:20;;;;;;;1.60;1.50;;;;;;;9.49;67.63;100629.50;5012884;27;97015;-59
2024/01/24 01:19:45;;;;;;;2.43;1.47;;;;;;;9.51;68.00;100649.84;5020986;27;97486;-59
2024/01/24 01:22:11;;;;;;;2.20;1.80;;;;;;;9.51;67.85;100646.31;5014952;27;110702;-60
2024/01/24 01:24:36;;;;;;;2.00;1.90;;;;;;;9.55;67.75;100655.13;5015310;27;96994;-60
2024/01/24 01:27:02;;;;;;;2.50;1.93;;;;;;;9.54;68.18;100651.56;5014618;27;97118;-59
2024/01/24 01:29:27;;;;;;;1.80;1.70;;;;;;;9.58;67.97;100637.53;5015184;27;97226;-58
2024/01/24 01:31:53;;;;;;;1.50;1.50;;;;;;;9.60;68.00;100624.72;5017163;27;96762;-61
2024/01/24 01:34:18;;;;;;;1.53;1.43;;;;;;;9.63;67.95;100626.44;5015119;27;97615;-59
2024/01/24 01:36:43;;;;;;;1.50;1.40;;;;;;;9.66;67.70;100617.16;5014740;27;97296;-59
2024/01/24 01:39:08;;;;;;;1.80;1.70;;;;;;;9.71;67.77;100615.63;5017495;27;96707;-60
2024/01/24 01:41:36;;;;;;;1.50;1.40;;;;;;;9.72;67.90;100604.06;5016124;27;104204;-59
2024/01/24 01:44:02;;;;;;;3.20;2.00;;;;;;;9.72;67.96;100595.75;5015148;27;98773;-62
2024/01/24 01:46:27;;;;;;;2.17;1.97;;;;;;;9.76;67.83;100620.34;5015787;27;97114;-60
2024/01/24 01:48:57;;;;;;;2.20;2.10;;;;;;;9.78;68.28;100595.75;5013714;27;97315;-61
2024/01/24 01:51:22;;;;;;;2.30;2.10;;;;;;;9.79;67.90;100598.00;5016690;27;97889;-60
2024/01/24 01:53:49;;;;;;;2.13;1.53;;;;;;;9.84;67.88;100593.69;5016231;27;98162;-62
2024/01/24 01:56:17;;;;;;;2.00;1.90;;;;;;;9.87;67.92;100601.69;5019012;27;98313;-59
2024/01/24 01:58:44;;;;;;;1.80;1.70;;;;;;;9.88;68.04;100586.63;5014979;27;97742;-61
2024/01/24 02:01:10;;;;;;;2.37;2.17;;;;;;;9.93;67.98;100602.41;5013987;27;97827;-60
2024/01/24 02:03:36;;;;;;;2.80;2.13;;;;;;;9.95;68.00;100582.56;5012994;27;97193;-59
2024/01/24 02:06:02;;;;;;;2.53;2.33;;;;;;;9.95;68.09;100569.47;5014419;27;97086;-60
2024/01/24 02:08:27;;;;;;;3.00;2.80;;;;;;;9.97;68.42;100568.97;5013307;27;97457;-59
2024/01/24 02:10:53;;;;;;;4.37;3.30;;;;;;;10.01;68.12;100552.88;5013464;27;97212;-61
2024/01/24 02:13:19;;;;;;;2.67;2.47;;;;;;;10.02;68.36;100541.28;5014270;27;97184;-59
2024/01/24 02:15:45;;;;;;;3.10;2.90;;;;;;;10.06;68.38;100540.25;5016454;27;96794;-60
2024/01/24 02:18:10;;;;;;;3.33;3.10;;;;;;;10.08;68.64;100541.25;5014229;27;97371;-60
2024/01/24 02:20:36;;;;;;;2.80;2.60;;;;;;;10.10;68.55;100552.53;5015212;27;97227;-61
2024/01/24 02:23:02;;;;;;;3.80;3.50;;;;;;;10.12;68.92;100541.72;5010224;27;97753;-60
2024/01/24 02:25:27;;;;;;;3.73;3.43;;;;;;;10.14;69.04;100538.44;5016648;27;96862;-60
2024/01/24 02:27:53;;;;;;;3.13;2.90;;;;;;;10.16;68.75;100531.13;5016808;27;97108;-59
2024/01/24 02:30:18;;;;;;;3.67;3.30;;;;;;;10.19;68.86;100530.09;5010698;27;97013;-59
2024/01/24 02:32:44;;;;;;;4.43;3.30;;;;;;;10.25;68.72;100527.28;5013683;27;98767;-59
2024/01/24 02:35:10;;;;;;;3.60;3.30;;;;;;;10.27;68.76;100530.25;5020792;27;96677;-59
2024/01/24 02:37:36;;;;;;;3.70;3.50;;;;;;;10.31;68.63;100536.25;5015164;27;97280;-61
2024/01/24 02:40:02;;;;;;;4.37;3.37;;;;;;;10.36;68.77;100527.16;5017791;27;97580;-59
2024/01/24 02:42:28;;;;;;;4.60;3.53;;;;;;;10.37;68.47;100521.09;5017942;27;99900;-60
2024/01/24 02:44:53;;;;;;;3.40;3.10;;;;;;;10.38;68.81;100528.16;5023063;27;97559;-59
2024/01/24 02:47:21;;;;;;;3.60;3.40;;;;;;;10.39;69.01;100520.59;5020987;27;97141;-59
2024/01/24 02:49:47;;;;;;;3.60;3.30;;;;;;;10.43;68.93;100527.34;5014359;27;97860;-59
2024/01/24 02:52:12;;;;;;;4.37;3.97;;;;;;;10.44;69.00;100523.31;5016624;27;97154;-59
2024/01/24 02:54:41;;;;;;;3.70;3.40;;;;;;;10.48;69.06;100511.94;5014308;27;97892;-59
2024/01/24 02:57:06;;;;;;;3.30;3.10;;;;;;;10.50;69.04;100509.44;5015718;27;96990;-59
2024/01/24 02:59:32;;;;;;;3.50;3.20;;;;;;;10.53;68.96;100502.84;5018082;27;97214;-59
2024/01/24 03:01:57;;;;;;;3.70;3.03;;;;;;;10.55;69.16;100500.31;5017832;27;97128;-59
2024/01/24 03:04:22;;;;;;;2.87;2.67;;;;;;;10.55;69.10;100505.84;5017360;27;97348;-59
2024/01/24 03:06:48;;;;;;;3.80;3.50;;;;;;;10.58;69.12;100488.97;5018329;27;96830;-59
2024/01/24 03:09:13;;;;;;;5.50;3.10;;;;;;;10.59;69.28;100482.16;5015751;27;97657;-60
2024/01/24 03:11:39;;;;;;;3.70;3.03;;;;;;;10.62;69.09;100483.88;5013595;27;98290;-60
2024/01/24 03:14:04;;;;;;;3.20;3.00;;;;;;;10.68;69.00;100492.09;5018387;27;97203;-60
2024/01/24 03:16:29;;;;;;;3.20;3.00;;;;;;;10.70;69.13;100492.34;5019731;27;97432;-60
2024/01/24 03:18:55;;;;;;;3.77;3.40;;;;;;;10.72;69.00;100489.78;5018620;27;97239;-59
2024/01/24 03:21:20;;;;;;;3.93;3.30;;;;;;;10.72;69.00;100481.50;5018149;27;103545;-59
2024/01/24 03:23:45;;;;;;;3.67;3.30;;;;;;;10.74;69.13;100474.16;5015794;27;97165;-59
2024/01/24 03:26:13;;;;;;;3.57;3.27;;;;;;;10.79;68.96;100458.81;5018648;27;96799;-60
2024/01/24 03:28:38;;;;;;;3.43;3.23;;;;;;;10.80;68.88;100452.00;5017462;27;97866;-60
2024/01/24 03:31:04;;;;;;;3.00;2.80;;;;;;;10.82;68.97;100463.31;5015223;27;96686;-60
2024/01/24 03:33:29;;;;;;;4.53;3.17;;;;;;;10.82;69.05;100468.84;5015615;27;96679;-60
2024/01/24 03:35:55;;;;;;;3.97;3.20;;;;;;;10.83;69.04;100475.13;5019101;27;97344;-59
2024/01/24 03:38:20;;;;;;;4.37;3.40;;;;;;;10.83;69.13;100472.34;5012670;27;97289;-61
2024/01/24 03:40:46;;;;;;;2.73;2.53;;;;;;;10.85;69.13;100462.25;5015102;27;97274;-60
2024/01/24 03:43:12;;;;;;;3.03;2.83;;;;;;;10.87;69.16;100459.72;5016852;27;97065;-59
2024/01/24 03:45:38;;;;;;;3.00;2.87;;;;;;;10.89;69.11;100446.09;5018890;27;97128;-59
2024/01/24 03:48:05;;;;;;;3.50;3.20;;;;;;;10.89;69.24;100437.06;5018927;27;96779;-60
2024/01/24 03:50:30;;;;;;;2.83;2.73;;;;;;;10.90;69.18;100436.50;5017247;27;98077;-59
2024/01/24 03:52:56;;;;;;;2.97;2.77;;;;;;;10.90;69.22;100425.44;5016627;27;96827;-60
2024/01/24 03:55:21;;;;;;;2.80;2.60;;;;;;;10.92;69.34;100433.97;5021917;27;97405;-59
2024/01/24 03:57:46;;;;;;;2.60;2.50;;;;;;;10.94;69.30;100425.88;5017613;27;97511;-59
2024/01/24 04:00:12;;;;;;;2.80;2.53;;;;;;;10.96;69.32;100420.56;5016517;27;106544;-59
2024/01/24 04:02:37;;;;;;;2.93;2.77;;;;;;;10.98;69.35;100420.78;5014295;27;97191;-60
2024/01/24 04:05:04;;;;;;;3.37;2.80;;;;;;;11.01;69.29;100428.06;5017399;27;96982;-59
2024/01/24 04:07:29;;;;;;;2.40;2.20;;;;;;;11.04;69.23;100417.97;5017021;27;97189;-58
2024/01/24 04:09:54;;;;;;;3.07;2.87;;;;;;;11.04;69.24;100413.19;5019358;27;97333;-59
2024/01/24 04:12:19;;;;;;;2.10;2.00;;;;;;;11.04;69.41;100387.50;5016134;27;96634;-60
2024/01/24 04:14:45;;;;;;;1.80;1.70;;;;;;;11.06;69.41;100387.72;5017364;27;96686;-60
2024/01/24 04:17:11;;;;;;;2.07;1.70;;;;;;;11.06;69.54;100384.97;5017151;27;97415;-59
2024/01/24 04:19:37;;;;;;;1.73;1.63;;;;;;;11.08;69.62;100382.41;5016012;27;97235;-59
2024/01/24 04:22:03;;;;;;;2.67;1.70;;;;;;;11.09;69.47;100381.16;5014530;27;96806;-60
2024/01/24 04:24:28;;;;;;;1.57;1.47;;;;;;;11.08;69.62;100396.25;5019123;27;97322;-59
2024/01/24 04:26:53;;;;;;;1.93;1.53;;;;;;;11.09;69.79;100398.50;5016886;27;96789;-59
2024/01/24 04:29:19;;;;;;;1.50;1.40;;;;;;;11.06;69.71;100394.03;5016529;27;105481;-58
2024/01/24 04:31:44;;;;;;;1.10;1.00;;;;;;;11.08;69.86;100385.19;5011757;27;97070;-60
2024/01/24 04:34:09;;;;;;;1.53;1.13;;;;;;;11.09;69.79;100398.50;5013439;27;97456;-59
2024/01/24 04:36:35;;;;;;;0.60;0.60;;;;;;;11.09;69.84;100378.38;5015849;27;98172;-59
2024/01/24 04:39:00;;;;;;;1.50;0.67;;;;;;;11.10;69.88;100385.41;5016856;27;97433;-59
2024/01/24 04:41:26;;;;;;;0.70;0.70;;;;;;;11.12;70.00;100377.31;5017471;27;96797;-59
2024/01/24 04:43:52;;;;;;;0.60;0.50;;;;;;;11.13;69.75;100378.81;5015985;27;97664;-59
2024/01/24 04:46:17;;;;;;;0.60;0.50;;;;;;;11.13;69.76;100381.59;5014369;27;97857;-59
2024/01/24 04:48:43;;;;;;;0.70;0.50;;;;;;;11.15;69.82;100385.34;5008480;27;110652;-61
2024/01/24 04:51:09;;;;;;;0.60;0.40;;;;;;;11.15;69.61;100398.41;5013887;27;97364;-61
2024/01/24 04:53:35;;;;;;;1.23;0.40;;;;;;;11.15;69.43;100409.50;5022802;27;97237;-59
2024/01/24 04:56:00;;;;;;;1.20;0.40;;;;;;;11.18;69.25;100419.50;5012967;27;99249;-60
2024/01/24 04:58:25;;;;;;;0.93;0.40;;;;;;;11.18;69.20;100447.94;5014789;27;97759;-59
2024/01/24 05:00:51;;;;;;;1.27;0.40;;;;;;;11.19;68.91;100462.53;5017459;27;96641;-58
2024/01/24 05:03:16;;;;;;;0.93;0.40;;;;;;;11.15;68.93;100457.31;5012751;27;97395;-61
2024/01/24 05:05:41;;;;;;;0.60;0.40;;;;;;;11.11;68.84;100464.44;5017929;27;97415;-58
2024/01/24 05:08:07;;;;;;;0.70;0.30;;;;;;;11.08;68.84;100482.09;5016816;27;103402;-59
2024/01/24 05:10:32;;;;;;;1.10;0.40;;;;;;;11.07;68.74;100478.56;5021026;27;96909;-60
2024/01/24 05:12:57;;;;;;;0.97;0.50;;;;;;;11.00;68.62;100490.25;5020370;27;97132;-59
2024/01/24 05:15:23;;;;;;;2.90;0.77;;;;;;;10.94;68.29;100481.25;5016747;27;99518;-59
2024/01/24 05:17:48;;;;;;;4.03;0.80;;;;;;;10.90;67.97;100491.13;5013153;27;97146;-60
2024/01/24 05:20:14;;;;;;;2.43;0.90;;;;;;;10.85;68.04;100489.19;5018429;27;97476;-59
2024/01/24 05:22:39;;;;;;;4.37;1.07;;;;;;;10.78;67.67;100487.72;5015332;27;96967;-59
2024/01/24 05:25:05;;;;;;;5.73;1.17;;;;;;;10.71;67.57;100504.91;5017045;27;97528;-59
2024/01/24 05:27:31;;;;;;;1.90;0.70;;;;;;;10.66;67.41;100500.19;5019192;27;97928;-59
2024/01/24 05:29:56;;;;;;;5.13;0.93;;;;;;;10.62;67.33;100491.44;5018771;27;96968;-61
2024/01/24 05:32:22;;;;;;;2.70;0.97;;;;;;;10.58;67.17;100510.34;5015221;27;97556;-60
2024/01/24 05:34:47;;;;;;;5.43;1.20;;;;;;;10.56;66.79;100527.47;5014607;27;98502;-60
2024/01/24 05:37:12;;;;;;;6.67;1.23;;;;;;;10.53;66.74;100538.81;5015484;27;98381;-58
2024/01/24 05:39:38;;;;;;;4.27;1.30;;;;;;;10.51;66.69;100544.88;5015525;27;97192;-60
2024/01/24 05:42:03;;;;;;;2.87;1.17;;;;;;;10.48;66.33;100528.53;5016541;27;97010;-60
2024/01/24 05:44:29;;;;;;;4.50;1.47;;;;;;;10.47;66.51;100552.69;5018320;27;97355;-61
2024/01/24 05:46:54;;;;;;;1.73;0.80;;;;;;;10.49;66.43;100549.41;5015917;27;98245;-59
2024/01/24 05:49:19;;;;;;;4.00;1.50;;;;;;;10.52;66.27;100545.63;5016464;27;97121;-61
2024/01/24 05:51:44;;;;;;;4.20;1.10;;;;;;;10.57;66.19;100548.31;5014542;27;96902;-61
2024/01/24 05:54:10;;;;;;;5.27;1.27;;;;;;;10.62;65.91;100541.22;5014782;27;103995;-61
2024/01/24 05:56:35;;;;;;;6.10;1.20;;;;;;;10.65;65.96;100546.47;5014190;27;101715;-61
2024/01/24 05:59:01;;;;;;;2.90;0.87;;;;;;;10.66;65.94;100555.53;5013827;27;97180;-61
2024/01/24 06:01:26;;;;;;;2.20;0.70;;;;;;;10.73;65.71;100549.41;5018497;27;97507;-60
2024/01/24 06:03:51;;;;;;;2.40;1.07;;;;;;;10.73;65.83;100550.16;5011781;27;98015;-60
2024/01/24 06:06:18;;;;;;;2.50;1.03;;;;;;;10.76;65.67;100540.81;5014347;27;107062;-61
2024/01/24 06:08:44;;;;;;;2.87;1.23;;;;;;;10.76;65.60;100546.34;5010134;27;97184;-61
2024/01/24 06:11:10;;;;;;;3.07;1.40;;;;;;;10.81;65.43;100549.63;5016272;27;96753;-63
2024/01/24 06:13:35;;;;;;;3.37;0.80;;;;;;;10.81;65.51;100542.03;5017823;27;97146;-60
2024/01/24 06:16:00;;;;;;;6.80;1.33;;;;;;;10.80;65.05;100537.78;5014810;27;97667;-62
2024/01/24 06:18:26;;;;;;;10.73;1.80;;;;;;;10.78;65.07;100541.03;5015918;27;97192;-62
2024/01/24 06:20:51;;;;;;;5.90;1.47;;;;;;;10.78;64.96;100551.38;5014351;27;96885;-61
2024/01/24 06:23:17;;;;;;;4.30;1.17;;;;;;;10.77;64.96;100552.63;5014931;27;97607;-62
2024/01/24 06:25:42;;;;;;;4.20;1.30;;;;;;;10.74;65.03;100575.81;5016736;27;102992;-60
2024/01/24 06:28:07;;;;;;;3.70;1.40;;;;;;;10.69;64.86;100560.03;5013990;27;97497;-61
2024/01/24 06:30:33;;;;;;;8.70;1.60;;;;;;;10.69;64.91;100573.84;5016822;27;96821;-63
2024/01/24 06:32:58;;;;;;;11.43;1.93;;;;;;;10.68;64.74;100586.94;5012919;27;103236;-60
2024/01/24 06:35:23;;;;;;;7.70;1.60;;;;;;;10.67;64.71;100599.28;5014922;27;97343;-60
2024/01/24 06:37:50;;;;;;;9.17;1.50;;;;;;;10.64;64.33;100603.06;5012634;27;96957;-61
2024/01/24 06:40:15;;;;;;;4.40;1.70;;;;;;;10.62;64.76;100599.31;5012189;27;97411;-61
2024/01/24 06:42:41;;;;;;;9.10;1.70;;;;;;;10.59;64.79;100603.88;5014908;27;98962;-63
2024/01/24 06:45:08;;;;;;;7.27;2.47;;;;;;;10.57;64.75;100609.19;5014515;27;96684;-61
2024/01/24 06:47:34;;;;;;;3.10;1.33;;;;;;;10.58;64.73;100605.16;5014480;27;97006;-62
2024/01/24 06:49:59;;;;;;;4.90;1.37;;;;;;;10.56;64.70;100610.47;5015862;27;96942;-61
2024/01/24 06:52:25;;;;;;;6.83;1.87;;;;;;;10.55;64.43;100605.41;5011158;27;97714;-61
2024/01/24 06:54:51;;;;;;;6.83;1.80;;;;;;;10.56;64.37;100601.41;5012699;27;97145;-64
2024/01/24 06:57:16;;;;;;;5.53;1.77;;;;;;;10.57;64.77;100617.47;5013087;27;97044;-62
2024/01/24 06:59:42;;;;;;;5.03;1.30;;;;;;;10.55;64.35;100633.09;5015934;27;97203;-63
2024/01/24 07:02:07;;;;;;;5.97;1.83;;;;;;;10.54;64.23;100667.56;5014950;27;99364;-60
2024/01/24 07:04:32;;;;;;;4.93;2.40;;;;;;;10.50;64.22;100648.47;5011647;27;97610;-61
2024/01/24 07:06:58;;;;;;;7.30;2.10;;;;;;;10.44;64.13;100647.75;5013229;27;97194;-62
2024/01/24 07:09:23;;;;;;;11.13;3.97;;;;;;;10.43;64.09;100656.59;5014757;27;97307;-60
2024/01/24 07:11:48;;;;;;;13.97;5.20;;;;;;;10.42;64.28;100660.59;5020155;27;97627;-61
2024/01/24 07:14:17;;;;;;;9.57;3.20;;;;;;;10.40;64.27;100668.66;5011810;27;97118;-61
2024/01/24 07:16:44;;;;;;;10.00;2.67;;;;;;;10.41;64.10;100672.94;5011429;27;97094;-63
2024/01/24 07:19:09;;;;;;;11.50;2.77;;;;;;;10.41;64.23;100678.47;5013053;27;98198;-63
2024/01/24 07:21:35;;;;;;;13.43;3.10;;;;;;;10.40;64.10;100685.25;5014471;27;99000;-61
2024/01/24 07:24:00;;;;;;;7.53;1.80;;;;;;;10.40;64.15;100686.03;5016907;27;96925;-63
2024/01/24 07:26:25;;;;;;;7.60;2.50;;;;;;;10.40;63.82;100680.50;5016783;27;97003;-63
2024/01/24 07:28:51;;;;;;;8.27;2.00;;;;;;;10.37;63.99;100684.28;5014726;27;97025;-63
2024/01/24 07:31:17;;;;;;;11.80;2.43;;;;;;;10.36;63.93;100679.25;5015981;27;98622;-61
2024/01/24 07:33:42;;;;;;;9.23;2.60;;;;;;;10.35;63.81;100705.41;5020087;27;97452;-61
2024/01/24 07:36:08;;;;;;;7.87;3.07;;;;;;;10.31;63.75;100705.69;5016570;27;96946;-62
2024/01/24 07:38:33;;;;;;;14.10;2.73;;;;;;;10.30;63.59;100687.63;5015894;27;97118;-62
2024/01/24 07:40:58;;;;;;;9.80;2.30;;;;;;;10.29;63.62;100699.94;5016978;27;97475;-63
2024/01/24 07:43:24;;;;;;;10.50;2.70;;;;;;;10.31;63.44;100705.69;5017723;27;97303;-63
2024/01/24 07:45:50;;;;;;;14.23;3.20;;;;;;;10.31;63.41;100693.88;5018552;27;97019;-63
2024/01/24 07:48:16;;;;;;;14.50;3.20;;;;;;;10.30;63.26;100695.91;5014357;27;97053;-62
2024/01/24 07:50:42;;;;;;;9.70;2.87;;;;;;;10.33;63.06;100710.69;5015483;27;97311;-63
2024/01/24 07:53:08;;;;;;;9.50;3.00;;;;;;;10.28;62.81;100714.28;5017643;27;97342;-63
2024/01/24 07:55:34;;;;;;;12.27;3.20;;;;;;;10.30;63.05;100731.09;5017206;27;97094;-62
2024/01/24 07:57:59;;;;;;;14.30;3.57;;;;;;;10.29;62.63;100721.28;5019868;27;97169;-62
2024/01/24 08:00:26;;;;;;;10.10;2.80;;;;;;;10.30;62.73;100742.16;5016527;27;97397;-62
2024/01/24 08:02:51;;;;;;;12.13;3.00;;;;;;;10.34;62.49;100723.28;5016504;27;97581;-64
2024/01/24 08:05:18;;;;;;;14.90;2.97;;;;;;;10.34;62.22;100751.69;5018740;27;97448;-61
2024/01/24 08:07:43;;;;;;;8.00;2.50;;;;;;;10.34;62.07;100751.69;5014036;27;97204;-62
2024/01/24 08:10:12;;;;;;;13.20;3.20;;;;;;;10.36;61.93;100756.69;5015872;27;97318;-61
2024/01/24 08:12:40;;;;;;;14.60;3.73;;;;;;;10.35;61.51;100744.13;5018037;27;100375;-63
2024/01/24 08:15:07;;;;;;;11.00;3.70;;;;;;;10.34;61.72;100765.50;5013075;27;100832;-63
2024/01/24 08:17:36;;;;;;;17.20;3.37;;;;;;;10.36;61.45;100760.22;5014876;27;97079;-63
2024/01/24 08:20:08;;;;;;;11.37;3.23;;;;;;;10.35;61.28;100761.47;5013108;27;97362;-63
2024/01/24 08:22:34;;;;;;;13.10;3.00;;;;;;;10.34;60.97;100768.28;5016424;27;97378;-60
2024/01/24 08:25:00;;;;;;;12.10;3.40;;;;;;;10.34;60.68;100765.50;5016159;27;97135;-63
2024/01/24 08:27:26;;;;;;;15.83;3.37;;;;;;;10.36;60.93;100753.94;5015505;27;97031;-62
2024/01/24 08:29:51;;;;;;;10.60;3.27;;;;;;;10.38;60.63;100763.22;5018413;27;97089;-62
2024/01/24 08:32:16;;;;;;;12.03;2.63;;;;;;;10.38;60.40;100773.53;5012915;27;98625;-64
2024/01/24 08:34:43;;;;;;;17.13;3.60;;;;;;;10.38;60.47;100768.00;5014723;27;103236;-62
2024/01/24 08:37:09;;;;;;;11.20;3.03;;;;;;;10.39;60.36;100778.53;5017312;27;97507;-62
2024/01/24 08:39:34;;;;;;;13.10;3.40;;;;;;;10.38;60.30;100795.66;5015920;27;100798;-62
2024/01/24 08:42:00;;;;;;;10.50;3.00;;;;;;;10.37;60.15;100788.63;5021528;27;99155;-64
2024/01/24 08:44:25;;;;;;;9.07;3.17;;;;;;;10.36;59.97;100781.59;5016607;27;97139;-63
2024/01/24 08:46:51;;;;;;;13.90;3.73;;;;;;;10.37;59.92;100783.09;5017764;27;96905;-66
2024/01/24 08:49:16;;;;;;;19.33;4.00;;;;;;;10.39;59.93;100794.41;5018405;27;97140;-64
2024/01/24 08:51:42;;;;;;;12.33;3.10;;;;;;;10.39;59.92;100786.09;5016723;27;97222;-63
2024/01/24 08:54:08;;;;;;;9.23;2.50;;;;;;;10.37;59.70;100800.44;5018173;27;97868;-62
2024/01/24 08:56:33;;;;;;;16.23;3.43;;;;;;;10.39;59.70;100816.53;5014993;27;97069;-61
2024/01/24 08:58:59;;;;;;;15.03;3.10;;;;;;;10.40;59.76;100818.00;5016669;27;96925;-63
2024/01/24 09:01:25;;;;;;;12.53;2.93;;;;;;;10.38;59.48;100831.59;5017281;27;97366;-63
2024/01/24 09:03:50;;;;;;;10.43;2.60;;;;;;;10.40;59.52;100829.06;5015136;27;96682;-63
2024/01/24 09:06:15;;;;;;;15.20;3.20;;;;;;;10.38;59.28;100824.06;5011960;27;96924;-64
2024/01/24 09:08:43;;;;;;;9.50;2.60;;;;;;;10.35;59.18;100819.53;5011975;27;97922;-63
2024/01/24 09:11:08;;;;;;;7.47;3.03;;;;;;;10.36;59.25;100825.84;5015637;27;97150;-62
2024/01/24 09:13:34;;;;;;;12.83;3.47;;;;;;;10.35;59.21;100841.66;5012613;27;97029;-64
2024/01/24 09:15:59;;;;;;;16.67;2.10;;;;;;;10.38;59.11;100842.66;5013747;27;97540;-64
2024/01/24 09:18:24;;;;;;;13.73;3.80;;;;;;;10.37;59.15;100852.25;5013757;27;109039;-63
2024/01/24 09:20:49;;;;;;;16.53;3.13;;;;;;;10.38;59.06;100864.78;5018296;27;97259;-61
2024/01/24 09:23:15;;;;;;;12.63;3.40;;;;;;;10.30;59.27;100867.34;5016776;27;96776;-63
2024/01/24 09:25:40;;;;;;;13.70;3.13;;;;;;;10.22;59.58;100865.59;5014560;27;96968;-62
2024/01/24 09:28:08;;;;;;;11.30;2.63;;;;;;;10.11;59.83;100865.66;5013442;27;97821;-63
2024/01/24 09:30:34;;;;;;;15.70;3.20;;;;;;;10.00;60.00;100867.19;5016327;27;96888;-63
2024/01/24 09:32:59;;;;;;;13.20;2.90;;;;;;;9.97;60.19;100868.22;5017665;27;97030;-64
2024/01/24 09:35:24;;;;;;;15.17;2.90;;;;;;;9.95;60.36;100850.63;5015019;27;96982;-63
2024/01/24 09:37:50;;;;;;;15.93;3.00;;;;;;;9.91;60.44;100847.38;5017530;27;97573;-62
2024/01/24 09:40:16;;;;;;;16.80;3.37;;;;;;;9.86;60.34;100857.19;5015117;27;107319;-61
2024/01/24 09:42:43;;;;;;;14.13;3.47;;;;;;;9.83;60.41;100860.22;5014369;27;97035;-62
2024/01/24 09:45:09;;;;;;;12.93;2.80;;;;;;;9.79;60.43;100856.94;5017179;27;96821;-63
2024/01/24 09:47:35;;;;;;;16.37;3.40;;;;;;;9.78;60.48;100856.19;5016916;27;97147;-61
2024/01/24 09:50:05;;;;;;;11.50;2.87;;;;;;;9.76;60.58;100869.00;5015741;27;98698;-63
2024/01/24 09:52:32;;;;;;;9.67;2.83;;;;;;;9.72;60.53;100863.75;5018270;27;96746;-62
2024/01/24 09:55:00;;;;;;;11.23;2.87;;;;;;;9.73;60.41;100876.31;5021303;27;96814;-62
2024/01/24 09:57:27;;;;;;;15.50;3.20;;;;;;;9.74;60.44;100877.81;5012453;27;98969;-64
2024/01/24 09:59:52;;;;;;;17.97;3.60;;;;;;;9.75;60.22;100873.03;5017100;27;99116;-66
2024/01/24 10:02:18;;;;;;;14.73;3.50;;;;;;;9.74;60.03;100880.56;5018843;27;100142;-62
2024/01/24 10:04:44;;;;;;;14.03;3.40;;;;;;;9.79;60.25;100898.41;5013155;27;99009;-62
2024/01/24 10:07:10;;;;;;;18.63;3.87;;;;;;;9.82;59.93;100889.09;5012640;27;97671;-63
2024/01/24 10:09:36;;;;;;;6.33;2.30;;;;;;;9.84;59.82;100881.06;5014378;27;97547;-63
2024/01/24 10:12:01;;;;;;;15.27;3.63;;;;;;;9.86;59.76;100886.84;5015936;27;97052;-62
2024/01/24 10:14:28;;;;;;;18.70;3.53;;;;;;;9.89;59.45;100892.09;5024524;27;97279;-63
2024/01/24 10:16:53;;;;;;;19.40;4.10;;;;;;;9.91;59.28;100897.13;5019738;27;97437;-61
2024/01/24 10:19:23;;;;;;;13.30;3.10;;;;;;;9.94;58.33;100885.81;5012397;27;97291;-63
2024/01/24 10:21:49;;;;;;;11.70;3.53;;;;;;;9.95;59.03;100909.41;5012876;27;97095;-64
2024/01/24 10:24:14;;;;;;;14.17;3.33;;;;;;;9.97;58.94;100904.16;5018018;27;96829;-64
2024/01/24 10:26:40;;;;;;;11.83;3.43;;;;;;;9.99;58.83;100915.47;5012170;27;101341;-62
2024/01/24 10:29:07;;;;;;;13.63;4.20;;;;;;;10.00;58.68;100919.72;5013540;27;97047;-65
2024/01/24 10:31:32;;;;;;;21.00;3.33;;;;;;;10.00;58.70;100936.28;5012042;27;97126;-63
2024/01/24 10:33:58;;;;;;;17.17;3.50;;;;;;;10.01;58.60;100929.53;5017576;27;96837;-63
2024/01/24 10:36:23;;;;;;;18.83;3.93;;;;;;;10.01;58.41;100909.41;5016836;27;98514;-63
2024/01/24 10:38:57;;;;;;;10.57;3.10;;;;;;;10.03;58.29;100915.94;5013673;27;98411;-64
2024/01/24 10:41:24;;;;;;;13.73;3.93;;;;;;;10.02;58.38;100919.97;5015982;27;97181;-64
2024/01/24 10:43:56;;;;;;;10.07;3.13;;;;;;;10.03;58.29;100913.19;5015766;27;97407;-63
2024/01/24 10:46:22;;;;;;;11.73;3.23;;;;;;;10.06;58.40;100930.00;5015501;27;96967;-63
2024/01/24 10:48:48;;;;;;;13.00;2.83;;;;;;;10.06;58.26;100918.97;5013139;27;97055;-64
2024/01/24 10:51:14;;;;;;;18.33;3.73;;;;;;;10.07;58.12;100921.19;5013591;27;96814;-63
2024/01/24 10:53:40;;;;;;;13.90;2.90;;;;;;;10.11;58.30;100938.28;5015946;27;97108;-64
2024/01/24 10:56:07;;;;;;;14.77;3.27;;;;;;;10.13;58.17;100938.53;5020054;27;97935;-64
2024/01/24 10:58:34;;;;;;;12.10;3.83;;;;;;;10.14;58.06;100925.47;5017531;27;98424;-64
2024/01/24 11:01:00;;;;;;;13.83;3.03;;;;;;;10.12;57.89;100939.03;5021100;27;97022;-64
2024/01/24 11:03:26;;;;;;;13.07;3.50;;;;;;;10.11;57.69;100941.03;5020337;27;97008;-63
2024/01/24 11:05:55;;;;;;;12.17;2.70;;;;;;;10.14;57.70;100947.56;5017156;27;97490;-61
2024/01/24 11:08:32;;;;;;;11.13;2.70;;;;;;;10.15;57.40;100949.81;5017291;27;96808;-63
2024/01/24 11:11:02;;;;;;;13.17;3.53;;;;;;;10.16;57.62;100961.66;5015890;27;97110;-63
2024/01/24 11:13:27;;;;;;;13.33;3.33;;;;;;;10.15;57.80;100947.06;5019223;27;97164;-62
2024/01/24 11:15:55;;;;;;;11.33;3.03;;;;;;;10.13;57.61;100954.38;5019737;27;107204;-63
2024/01/24 11:18:22;;;;;;;9.13;2.10;;;;;;;10.12;57.62;100958.41;5016107;27;98699;-63